createdAt,value
2023-04-11T00:00:03.656Z,1007.96
2023-04-11T00:01:03.620Z,1007.92
2023-04-11T00:02:03.664Z,1007.98
2023-04-11T00:03:03.864Z,1007.95
2023-04-11T00:04:03.684Z,1007.94
2023-04-11T00:05:03.693Z,1007.92
2023-04-11T00:06:03.583Z,1007.95
2023-04-11T00:07:03.557Z,1007.97
2023-04-11T00:08:03.571Z,1007.90
2023-04-11T00:09:03.531Z,1007.93
2023-04-11T00:10:03.534Z,1007.94
2023-04-11T00:11:03.525Z,1007.92
2023-04-11T00:12:03.504Z,1007.83
2023-04-11T00:13:03.510Z,1007.82
2023-04-11T00:14:03.473Z,1007.83
2023-04-11T00:15:03.464Z,1007.81
2023-04-11T00:16:03.672Z,1007.83
2023-04-11T00:17:03.469Z,1007.77
2023-04-11T00:18:03.507Z,1007.77
2023-04-11T00:19:03.431Z,1007.82
2023-04-11T00:20:03.419Z,1007.70
2023-04-11T00:21:03.398Z,1007.70
2023-04-11T00:22:03.410Z,1007.65
2023-04-11T00:23:03.383Z,1007.63
2023-04-11T00:24:03.406Z,1007.59
2023-04-11T00:25:03.368Z,1007.59
2023-04-11T00:26:03.367Z,1007.59
2023-04-11T00:27:03.371Z,1007.54
2023-04-11T00:28:03.371Z,1007.57
2023-04-11T00:29:03.311Z,1007.57
2023-04-11T00:30:03.307Z,1007.61
2023-04-11T00:31:03.293Z,1007.62
2023-04-11T00:32:03.463Z,1007.58
2023-04-11T00:33:03.317Z,1007.54
2023-04-11T00:34:03.259Z,1007.49
2023-04-11T00:35:03.261Z,1007.51
2023-04-11T00:36:03.291Z,1007.41
2023-04-11T00:37:03.286Z,1007.44
2023-04-11T00:38:03.241Z,1007.44
2023-04-11T00:39:03.195Z,1007.39
2023-04-11T00:40:03.196Z,1007.36
2023-04-11T00:41:03.181Z,1007.41
2023-04-11T00:42:03.196Z,1007.31
2023-04-11T00:43:03.187Z,1007.25
2023-04-11T00:44:03.157Z,1007.28
2023-04-11T00:45:03.128Z,1007.27
2023-04-11T00:46:03.189Z,1007.27
2023-04-11T00:47:03.111Z,1007.20
2023-04-11T00:48:03.229Z,1007.20
2023-04-11T00:49:03.086Z,1007.16
2023-04-11T00:50:03.082Z,1007.18
2023-04-11T00:51:03.084Z,1007.13
2023-04-11T00:52:03.084Z,1007.12
2023-04-11T00:53:03.045Z,1007.13
2023-04-11T00:54:03.037Z,1007.17
2023-04-11T00:55:03.025Z,1007.14
2023-04-11T00:56:03.067Z,1007.04
2023-04-11T00:57:03.000Z,1007.05
2023-04-11T00:58:02.987Z,1007.08
2023-04-11T00:59:02.974Z,1007.05
2023-04-11T01:00:02.992Z,1007.10
2023-04-11T01:01:02.988Z,1007.08
2023-04-11T01:02:03.022Z,1007.03
2023-04-11T01:03:03.207Z,1007.06
2023-04-11T01:04:03.044Z,1007.05
2023-04-11T01:05:02.925Z,1007.05
2023-04-11T01:06:02.924Z,1006.95
2023-04-11T01:07:02.899Z,1006.97
2023-04-11T01:08:02.888Z,1007.00
2023-04-11T01:09:02.870Z,1006.94
2023-04-11T01:10:02.870Z,1006.92
2023-04-11T01:11:02.881Z,1006.91
2023-04-11T01:12:02.870Z,1006.89
2023-04-11T01:13:02.828Z,1006.82
2023-04-11T01:14:02.827Z,1006.89
2023-04-11T01:15:02.809Z,1006.83
2023-04-11T01:16:02.827Z,1006.86
2023-04-11T01:17:02.920Z,1006.81
2023-04-11T01:18:02.856Z,1006.82
2023-04-11T01:19:02.764Z,1006.73
2023-04-11T01:20:02.773Z,1006.69
2023-04-11T01:21:02.766Z,1006.69
2023-04-11T01:22:02.821Z,1006.56
2023-04-11T01:23:02.721Z,1006.47
2023-04-11T01:24:02.710Z,1006.48
2023-04-11T01:25:02.740Z,1006.34
2023-04-11T01:26:02.712Z,1006.33
2023-04-11T01:27:02.673Z,1006.35
2023-04-11T01:28:02.677Z,1006.40
2023-04-11T01:29:02.656Z,1006.38
2023-04-11T01:30:02.650Z,1006.44
2023-04-11T01:31:02.722Z,1006.45
2023-04-11T01:32:02.644Z,1006.42
2023-04-11T01:33:02.638Z,1006.44
2023-04-11T01:34:02.598Z,1006.43
2023-04-11T01:35:02.592Z,1006.42
2023-04-11T01:36:02.775Z,1006.45
2023-04-11T01:37:02.600Z,1006.38
2023-04-11T01:38:02.556Z,1006.35
2023-04-11T01:39:02.545Z,1006.34
2023-04-11T01:40:02.535Z,1006.31
2023-04-11T01:41:02.524Z,1006.29
2023-04-11T01:42:02.533Z,1006.18
2023-04-11T01:43:02.494Z,1006.23
2023-04-11T01:44:02.480Z,1006.08
2023-04-11T01:45:02.468Z,1006.16
2023-04-11T01:46:02.466Z,1006.03
2023-04-11T01:47:02.490Z,1006.11
2023-04-11T01:48:02.555Z,1006.04
2023-04-11T01:49:02.454Z,1006.04
2023-04-11T01:50:02.417Z,1006.04
2023-04-11T01:51:02.401Z,1006.06
2023-04-11T01:52:02.463Z,1006.01
2023-04-11T01:53:02.409Z,1005.95
2023-04-11T01:54:02.400Z,1005.95
2023-04-11T01:55:02.357Z,1005.92
2023-04-11T01:56:02.358Z,1005.86
2023-04-11T01:57:02.349Z,1005.83
2023-04-11T01:58:02.382Z,1005.76
2023-04-11T01:59:02.339Z,1005.79
2023-04-11T02:00:02.333Z,1005.73
2023-04-11T02:01:02.348Z,1005.69
2023-04-11T02:02:02.373Z,1005.75
2023-04-11T02:03:02.413Z,1005.78
2023-04-11T02:04:02.324Z,1005.70
2023-04-11T02:05:02.245Z,1005.68
2023-04-11T02:06:02.274Z,1005.73
2023-04-11T02:07:02.223Z,1005.72
2023-04-11T02:08:02.250Z,1005.65
2023-04-11T02:09:02.205Z,1005.66
2023-04-11T02:10:02.220Z,1005.59
2023-04-11T02:11:02.202Z,1005.52
2023-04-11T02:12:02.176Z,1005.52
2023-04-11T02:13:02.161Z,1005.62
2023-04-11T02:14:02.290Z,1005.52
2023-04-11T02:15:02.170Z,1005.51
2023-04-11T02:16:02.197Z,1005.51
2023-04-11T02:17:02.157Z,1005.56
2023-04-11T02:18:02.159Z,1005.47
2023-04-11T02:19:02.093Z,1005.48
2023-04-11T02:20:02.115Z,1005.47
2023-04-11T02:21:02.075Z,1005.48
2023-04-11T02:22:02.142Z,1005.43
2023-04-11T02:23:02.047Z,1005.40
2023-04-11T02:24:02.068Z,1005.28
2023-04-11T02:25:02.031Z,1005.34
2023-04-11T02:26:02.044Z,1005.29
2023-04-11T02:27:02.029Z,1005.31
2023-04-11T02:28:02.091Z,1005.25
2023-04-11T02:29:02.004Z,1005.26
2023-04-11T02:30:02.045Z,1005.28
2023-04-11T02:31:02.103Z,1005.30
2023-04-11T02:32:02.090Z,1005.25
2023-04-11T02:33:02.109Z,1005.27
2023-04-11T02:34:01.980Z,1005.16
2023-04-11T02:35:01.914Z,1005.22
2023-04-11T02:36:02.066Z,1005.16
2023-04-11T02:37:01.931Z,1005.23
2023-04-11T02:38:01.897Z,1005.11
2023-04-11T02:39:01.873Z,1005.10
2023-04-11T02:40:01.885Z,1005.11
2023-04-11T02:41:01.880Z,1005.10
2023-04-11T02:42:01.870Z,1005.08
2023-04-11T02:43:01.892Z,1005.10
2023-04-11T02:44:01.833Z,1005.04
2023-04-11T02:45:01.811Z,1005.05
2023-04-11T02:46:11.712Z,1005.05
2023-04-11T02:47:02.881Z,1005.08
2023-04-11T02:48:01.841Z,1005.07
2023-04-11T02:49:01.796Z,1005.06
2023-04-11T02:50:01.802Z,1005.02
2023-04-11T02:51:01.743Z,1005.04
2023-04-11T02:52:01.760Z,1005.03
2023-04-11T02:53:01.720Z,1005.01
2023-04-11T02:54:01.727Z,1004.96
2023-04-11T02:55:01.764Z,1004.98
2023-04-11T02:56:01.713Z,1005.00
2023-04-11T02:57:01.672Z,1005.04
2023-04-11T02:58:01.673Z,1004.96
2023-04-11T02:59:01.696Z,1004.94
2023-04-11T03:00:01.673Z,1004.94
2023-04-11T03:01:01.645Z,1004.98
2023-04-11T03:02:01.793Z,1004.95
2023-04-11T03:03:01.673Z,1004.88
2023-04-11T03:04:01.797Z,1004.94
2023-04-11T03:05:01.640Z,1004.82
2023-04-11T03:06:01.592Z,1004.95
2023-04-11T03:07:01.568Z,1004.91
2023-04-11T03:08:01.578Z,1004.89
2023-04-11T03:09:01.543Z,1004.93
2023-04-11T03:10:01.531Z,1004.88
2023-04-11T03:11:01.599Z,1004.85
2023-04-11T03:12:01.534Z,1004.86
2023-04-11T03:13:01.550Z,1004.87
2023-04-11T03:14:01.516Z,1004.86
2023-04-11T03:15:01.483Z,1004.89
2023-04-11T03:16:01.615Z,1004.85
2023-04-11T03:17:01.519Z,1004.84
2023-04-11T03:18:01.497Z,1004.79
2023-04-11T03:19:01.441Z,1004.83
2023-04-11T03:20:01.427Z,1004.74
2023-04-11T03:21:01.485Z,1004.79
2023-04-11T03:22:01.434Z,1004.73
2023-04-11T03:23:01.402Z,1004.75
2023-04-11T03:24:01.382Z,1004.77
2023-04-11T03:25:01.369Z,1004.87
2023-04-11T03:26:01.392Z,1004.74
2023-04-11T03:27:01.353Z,1004.79
2023-04-11T03:28:01.397Z,1004.75
2023-04-11T03:29:01.337Z,1004.73
2023-04-11T03:30:01.410Z,1004.70
2023-04-11T03:31:01.333Z,1004.65
2023-04-11T03:32:01.351Z,1004.69
2023-04-11T03:33:01.402Z,1004.64
2023-04-11T03:34:01.283Z,1004.69
2023-04-11T03:35:01.262Z,1004.64
2023-04-11T03:36:01.330Z,1004.63
2023-04-11T03:37:01.260Z,1004.64
2023-04-11T03:38:01.226Z,1004.57
2023-04-11T03:39:01.241Z,1004.54
2023-04-11T03:40:01.236Z,1004.60
2023-04-11T03:41:01.223Z,1004.59
2023-04-11T03:42:01.205Z,1004.62
2023-04-11T03:43:02.980Z,1004.63
2023-04-11T03:44:01.190Z,1004.60
2023-04-11T03:45:01.183Z,1004.52
2023-04-11T03:46:01.163Z,1004.58
2023-04-11T03:47:01.379Z,1004.49
2023-04-11T03:48:01.195Z,1004.51
2023-04-11T03:49:01.155Z,1004.53
2023-04-11T03:50:01.116Z,1004.53
2023-04-11T03:51:01.123Z,1004.46
2023-04-11T03:52:01.089Z,1004.49
2023-04-11T03:53:01.074Z,1004.47
2023-04-11T03:54:01.076Z,1004.48
2023-04-11T03:55:01.045Z,1004.48
2023-04-11T03:56:01.032Z,1004.53
2023-04-11T03:57:01.041Z,1004.49
2023-04-11T03:58:01.016Z,1004.45
2023-04-11T03:59:01.005Z,1004.44
2023-04-11T04:00:01.032Z,1004.47
2023-04-11T04:01:00.982Z,1004.46
2023-04-11T04:02:01.082Z,1004.41
2023-04-11T04:03:01.180Z,1004.44
2023-04-11T04:04:01.308Z,1004.40
2023-04-11T04:05:00.980Z,1004.39
2023-04-11T04:06:00.950Z,1004.33
2023-04-11T04:07:00.916Z,1004.44
2023-04-11T04:08:00.894Z,1004.42
2023-04-11T04:09:00.913Z,1004.40
2023-04-11T04:10:00.869Z,1004.47
2023-04-11T04:11:00.898Z,1004.48
2023-04-11T04:12:00.927Z,1004.47
2023-04-11T04:13:00.853Z,1004.36
2023-04-11T04:14:00.832Z,1004.42
2023-04-11T04:15:00.844Z,1004.41
2023-04-11T04:16:03.430Z,1004.43
2023-04-11T04:17:00.870Z,1004.45
2023-04-11T04:18:00.822Z,1004.49
2023-04-11T04:19:00.783Z,1004.46
2023-04-11T04:20:00.765Z,1004.41
2023-04-11T04:21:00.762Z,1004.37
2023-04-11T04:22:00.775Z,1004.41
2023-04-11T04:23:00.760Z,1004.38
2023-04-11T04:24:00.720Z,1004.32
2023-04-11T04:25:00.724Z,1004.29
2023-04-11T04:26:00.710Z,1004.27
2023-04-11T04:27:00.696Z,1004.25
2023-04-11T04:28:00.706Z,1004.27
2023-04-11T04:29:00.738Z,1004.28
2023-04-11T04:30:04.094Z,1004.37
2023-04-11T04:31:00.647Z,1004.29
2023-04-11T04:32:00.727Z,1004.36
2023-04-11T04:33:00.738Z,1004.30
2023-04-11T04:34:00.616Z,1004.39
2023-04-11T04:35:00.605Z,1004.37
2023-04-11T04:36:00.647Z,1004.34
2023-04-11T04:37:00.586Z,1004.42
2023-04-11T04:38:00.587Z,1004.40
2023-04-11T04:39:00.565Z,1004.39
2023-04-11T04:40:00.559Z,1004.42
2023-04-11T04:41:00.556Z,1004.44
2023-04-11T04:42:00.526Z,1004.48
2023-04-11T04:43:00.537Z,1004.49
2023-04-11T04:44:00.502Z,1004.51
2023-04-11T04:45:00.511Z,1004.55
2023-04-11T04:46:00.552Z,1004.45
2023-04-11T04:47:00.629Z,1004.44
2023-04-11T04:48:00.525Z,1004.40
2023-04-11T04:49:02.213Z,1004.38
2023-04-11T04:50:00.438Z,1004.40
2023-04-11T04:51:00.452Z,1004.32
2023-04-11T04:52:00.418Z,1004.29
2023-04-11T04:53:00.426Z,1004.30
2023-04-11T04:54:00.387Z,1004.27
2023-04-11T04:55:00.596Z,1004.23
2023-04-11T04:56:00.365Z,1004.27
2023-04-11T04:57:00.364Z,1004.25
2023-04-11T04:58:00.374Z,1004.26
2023-04-11T04:59:00.343Z,1004.24
2023-04-11T05:00:00.331Z,1004.22
2023-04-11T05:01:00.381Z,1004.26
2023-04-11T05:02:00.371Z,1004.26
2023-04-11T05:03:00.582Z,1004.26
2023-04-11T05:04:01.143Z,1004.26
2023-04-11T05:05:00.272Z,1004.22
2023-04-11T05:06:00.254Z,1004.32
2023-04-11T05:07:00.245Z,1004.27
2023-04-11T05:08:00.245Z,1004.30
2023-04-11T05:09:00.259Z,1004.26
2023-04-11T05:10:00.222Z,1004.25
2023-04-11T05:11:00.214Z,1004.18
2023-04-11T05:12:00.220Z,1004.13
2023-04-11T05:13:00.194Z,1004.16
2023-04-11T05:14:00.191Z,1004.17
2023-04-11T05:15:00.180Z,1004.14
2023-04-11T05:16:00.159Z,1004.14
2023-04-11T05:17:00.405Z,1004.15
2023-04-11T05:18:00.171Z,1004.13
2023-04-11T05:19:00.123Z,1004.15
2023-04-11T05:20:00.208Z,1004.14
2023-04-11T05:21:00.119Z,1004.08
2023-04-11T05:22:00.110Z,1004.09
2023-04-11T05:23:00.133Z,1004.03
2023-04-11T05:24:00.064Z,1004.07
2023-04-11T05:25:00.059Z,1004.01
2023-04-11T05:26:00.075Z,1003.97
2023-04-11T05:27:00.042Z,1004.03
2023-04-11T05:28:00.046Z,1004.01
2023-04-11T05:29:00.025Z,1003.99
2023-04-11T05:30:00.005Z,1003.97
2023-04-11T05:31:00.051Z,1004.00
2023-04-11T05:31:59.977Z,1003.95
2023-04-11T05:33:00.037Z,1004.02
2023-04-11T05:33:59.951Z,1004.02
2023-04-11T05:34:59.954Z,1004.00
2023-04-11T05:36:00.148Z,1004.02
2023-04-11T05:36:59.933Z,1004.04
2023-04-11T05:37:59.932Z,1003.96
2023-04-11T05:38:59.902Z,1003.97
2023-04-11T05:39:59.909Z,1004.05
2023-04-11T05:40:59.884Z,1004.07
2023-04-11T05:41:59.900Z,1004.09
2023-04-11T05:42:59.878Z,1004.08
2023-04-11T05:43:59.845Z,1004.15
2023-04-11T05:44:59.839Z,1004.10
2023-04-11T05:45:59.870Z,1004.14
2023-04-11T05:46:59.828Z,1004.14
2023-04-11T05:47:59.835Z,1004.13
2023-04-11T05:48:59.794Z,1004.10
2023-04-11T05:49:59.800Z,1004.18
2023-04-11T05:50:59.823Z,1004.10
2023-04-11T05:51:59.816Z,1004.18
2023-04-11T05:52:59.770Z,1004.35
2023-04-11T05:53:59.732Z,1004.29
2023-04-11T05:54:59.733Z,1004.29
2023-04-11T05:55:59.743Z,1004.29
2023-04-11T05:56:59.737Z,1004.26
2023-04-11T05:57:59.696Z,1004.29
2023-04-11T05:58:59.691Z,1004.26
2023-04-11T05:59:59.665Z,1004.24
2023-04-11T06:00:59.672Z,1004.18
2023-04-11T06:01:59.730Z,1004.23
2023-04-11T06:02:59.726Z,1004.20
2023-04-11T06:03:59.969Z,1004.24
2023-04-11T06:04:59.661Z,1004.19
2023-04-11T06:05:59.602Z,1004.17
2023-04-11T06:06:59.618Z,1004.20
2023-04-11T06:07:59.676Z,1004.19
2023-04-11T06:08:59.569Z,1004.30
2023-04-11T06:09:59.556Z,1004.22
2023-04-11T06:10:59.549Z,1004.33
2023-04-11T06:11:59.563Z,1004.22
2023-04-11T06:12:59.550Z,1004.30
2023-04-11T06:13:59.509Z,1004.26
2023-04-11T06:14:59.503Z,1004.23
2023-04-11T06:15:59.541Z,1004.25
2023-04-11T06:16:59.517Z,1004.25
2023-04-11T06:17:59.522Z,1004.27
2023-04-11T06:18:59.453Z,1004.20
2023-04-11T06:19:59.442Z,1004.17
2023-04-11T06:20:59.437Z,1004.09
2023-04-11T06:21:59.449Z,1004.12
2023-04-11T06:22:59.419Z,1004.15
2023-04-11T06:23:59.418Z,1004.11
2023-04-11T06:24:59.414Z,1004.11
2023-04-11T06:25:59.374Z,1004.09
2023-04-11T06:26:59.413Z,1004.01
2023-04-11T06:27:59.349Z,1004.02
2023-04-11T06:28:59.350Z,1004.01
2023-04-11T06:29:59.356Z,1004.06
2023-04-11T06:30:59.338Z,1004.10
2023-04-11T06:31:59.314Z,1004.10
2023-04-11T06:32:59.370Z,1004.11
2023-04-11T06:33:59.286Z,1004.05
2023-04-11T06:34:59.278Z,1004.11
2023-04-11T06:35:59.286Z,1004.11
2023-04-11T06:36:59.262Z,1004.10
2023-04-11T06:37:59.272Z,1004.05
2023-04-11T06:38:59.248Z,1004.07
2023-04-11T06:39:59.288Z,1004.06
2023-04-11T06:40:59.230Z,1004.06
2023-04-11T06:41:59.208Z,1004.06
2023-04-11T06:42:59.197Z,1004.05
2023-04-11T06:43:59.429Z,1003.99
2023-04-11T06:44:59.196Z,1004.00
2023-04-11T06:45:59.172Z,1004.01
2023-04-11T06:46:59.373Z,1004.03
2023-04-11T06:47:59.230Z,1004.03
2023-04-11T06:48:59.129Z,1004.05
2023-04-11T06:49:59.117Z,1004.02
2023-04-11T06:50:59.111Z,1004.08
2023-04-11T06:51:59.112Z,1004.13
2023-04-11T06:52:59.113Z,1004.02
2023-04-11T06:53:59.072Z,1004.09
2023-04-11T06:54:59.065Z,1004.04
2023-04-11T06:55:59.070Z,1004.10
2023-04-11T06:56:59.040Z,1004.13
2023-04-11T06:57:59.041Z,1004.10
2023-04-11T06:58:59.020Z,1004.14
2023-04-11T06:59:59.007Z,1004.15
2023-04-11T07:00:59.009Z,1004.14
2023-04-11T07:01:59.133Z,1004.09
2023-04-11T07:02:59.142Z,1004.11
2023-04-11T07:03:59.455Z,1004.19
2023-04-11T07:04:58.981Z,1004.11
2023-04-11T07:05:58.943Z,1004.18
2023-04-11T07:06:58.937Z,1004.15
2023-04-11T07:07:58.938Z,1004.12
2023-04-11T07:08:58.912Z,1004.18
2023-04-11T07:09:58.918Z,1004.16
2023-04-11T07:10:58.892Z,1004.18
2023-04-11T07:11:58.900Z,1004.19
2023-04-11T07:12:58.893Z,1004.29
2023-04-11T07:13:58.859Z,1004.22
2023-04-11T07:14:58.860Z,1004.22
2023-04-11T07:15:58.851Z,1004.18
2023-04-11T07:16:58.815Z,1004.17
2023-04-11T07:17:58.843Z,1004.14
2023-04-11T07:18:58.798Z,1004.15
2023-04-11T07:19:58.786Z,1004.14
2023-04-11T07:20:58.801Z,1004.16
2023-04-11T07:21:58.764Z,1004.18
2023-04-11T07:22:58.775Z,1004.17
2023-04-11T07:23:58.744Z,1004.24
2023-04-11T07:24:58.770Z,1004.24
2023-04-11T07:25:58.718Z,1004.22
2023-04-11T07:26:58.723Z,1004.22
2023-04-11T07:27:58.756Z,1004.19
2023-04-11T07:28:58.696Z,1004.16
2023-04-11T07:29:58.678Z,1004.15
2023-04-11T07:30:58.696Z,1004.19
2023-04-11T07:31:58.719Z,1004.18
2023-04-11T07:32:58.694Z,1004.24
2023-04-11T07:33:58.928Z,1004.21
2023-04-11T07:34:58.630Z,1004.22
2023-04-11T07:35:58.659Z,1004.23
2023-04-11T07:36:58.611Z,1004.22
2023-04-11T07:37:58.607Z,1004.31
2023-04-11T07:38:58.584Z,1004.31
2023-04-11T07:39:58.562Z,1004.28
2023-04-11T07:40:58.593Z,1004.36
2023-04-11T07:41:58.540Z,1004.30
2023-04-11T07:42:58.533Z,1004.28
2023-04-11T07:43:58.755Z,1004.34
2023-04-11T07:44:58.513Z,1004.26
2023-04-11T07:45:58.547Z,1004.27
2023-04-11T07:46:58.522Z,1004.25
2023-04-11T07:47:58.533Z,1004.30
2023-04-11T07:48:58.467Z,1004.33
2023-04-11T07:49:58.452Z,1004.25
2023-04-11T07:50:58.448Z,1004.23
2023-04-11T07:51:58.455Z,1004.30
2023-04-11T07:52:58.451Z,1004.24
2023-04-11T07:53:58.501Z,1004.33
2023-04-11T07:54:58.404Z,1004.33
2023-04-11T07:55:58.419Z,1004.36
2023-04-11T07:56:58.408Z,1004.32
2023-04-11T07:57:58.392Z,1004.32
2023-04-11T07:58:58.408Z,1004.34
2023-04-11T07:59:58.365Z,1004.35
2023-04-11T08:00:58.352Z,1004.37
2023-04-11T08:01:58.431Z,1004.39
2023-04-11T08:02:58.527Z,1004.32
2023-04-11T08:03:58.789Z,1004.36
2023-04-11T08:04:58.454Z,1004.36
2023-04-11T08:05:58.294Z,1004.39
2023-04-11T08:06:58.278Z,1004.41
2023-04-11T08:07:58.282Z,1004.34
2023-04-11T08:08:58.247Z,1004.41
2023-04-11T08:09:58.230Z,1004.41
2023-04-11T08:10:58.231Z,1004.46
2023-04-11T08:11:58.239Z,1004.42
2023-04-11T08:12:58.195Z,1004.45
2023-04-11T08:13:58.545Z,1004.52
2023-04-11T08:14:58.186Z,1004.54
2023-04-11T08:15:58.205Z,1004.57
2023-04-11T08:16:58.229Z,1004.62
2023-04-11T08:17:58.172Z,1004.65
2023-04-11T08:18:58.143Z,1004.67
2023-04-11T08:19:58.139Z,1004.64
2023-04-11T08:20:58.113Z,1004.67
2023-04-11T08:21:58.127Z,1004.65
2023-04-11T08:22:58.098Z,1004.66
2023-04-11T08:23:58.391Z,1004.69
2023-04-11T08:24:58.069Z,1004.64
2023-04-11T08:25:58.060Z,1004.67
2023-04-11T08:26:58.070Z,1004.63
2023-04-11T08:27:58.042Z,1004.65
2023-04-11T08:28:58.051Z,1004.63
2023-04-11T08:29:58.016Z,1004.62
2023-04-11T08:30:58.058Z,1004.62
2023-04-11T08:31:58.039Z,1004.63
2023-04-11T08:32:58.058Z,1004.67
2023-04-11T08:34:00.737Z,1004.62
2023-04-11T08:34:57.958Z,1004.62
2023-04-11T08:35:58.016Z,1004.65
2023-04-11T08:36:57.941Z,1004.68
2023-04-11T08:37:58.010Z,1004.65
2023-04-11T08:38:57.936Z,1004.64
2023-04-11T08:39:57.914Z,1004.65
2023-04-11T08:40:57.894Z,1004.62
2023-04-11T08:41:57.922Z,1004.60
2023-04-11T08:42:57.878Z,1004.56
2023-04-11T08:43:58.242Z,1004.61
2023-04-11T08:44:57.849Z,1004.67
2023-04-11T08:45:57.851Z,1004.62
2023-04-11T08:46:57.845Z,1004.64
2023-04-11T08:47:57.889Z,1004.65
2023-04-11T08:48:57.809Z,1004.69
2023-04-11T08:49:57.806Z,1004.76
2023-04-11T08:50:57.784Z,1004.70
2023-04-11T08:51:57.969Z,1004.68
2023-04-11T08:52:57.785Z,1004.75
2023-04-11T08:53:58.167Z,1004.65
2023-04-11T08:54:57.738Z,1004.72
2023-04-11T08:55:57.734Z,1004.68
2023-04-11T08:56:57.731Z,1004.70
2023-04-11T08:57:57.735Z,1004.67
2023-04-11T08:58:57.697Z,1004.64
2023-04-11T08:59:57.692Z,1004.69
2023-04-11T09:00:57.676Z,1004.66
2023-04-11T09:01:57.753Z,1004.73
2023-04-11T09:02:57.962Z,1004.73
2023-04-11T09:03:58.055Z,1004.81
2023-04-11T09:04:57.857Z,1004.85
2023-04-11T09:05:57.621Z,1004.87
2023-04-11T09:07:00.219Z,1004.85
2023-04-11T09:07:57.601Z,1004.87
2023-04-11T09:08:57.611Z,1004.85
2023-04-11T09:09:57.601Z,1004.77
2023-04-11T09:10:57.569Z,1004.82
2023-04-11T09:11:57.563Z,1004.78
2023-04-11T09:12:57.552Z,1004.76
2023-04-11T09:13:57.662Z,1004.82
2023-04-11T09:14:57.560Z,1004.78
2023-04-11T09:15:57.540Z,1004.79
2023-04-11T09:16:57.553Z,1004.80
2023-04-11T09:18:00.409Z,1004.76
2023-04-11T09:18:57.690Z,1004.76
2023-04-11T09:19:57.550Z,1004.73
2023-04-11T09:20:57.456Z,1004.75
2023-04-11T09:21:57.453Z,1004.74
2023-04-11T09:22:57.433Z,1004.77
2023-04-11T09:23:57.561Z,1004.78
2023-04-11T09:24:57.433Z,1004.70
2023-04-11T09:25:57.404Z,1004.74
2023-04-11T09:26:57.412Z,1004.69
2023-04-11T09:27:57.385Z,1004.65
2023-04-11T09:28:57.578Z,1004.62
2023-04-11T09:29:57.364Z,1004.62
2023-04-11T09:30:57.359Z,1004.62
2023-04-11T09:31:57.358Z,1004.56
2023-04-11T09:32:57.350Z,1004.57
2023-04-11T09:33:57.643Z,1004.55
2023-04-11T09:34:57.327Z,1004.60
2023-04-11T09:35:57.375Z,1004.61
2023-04-11T09:36:57.279Z,1004.62
2023-04-11T09:37:57.281Z,1004.60
2023-04-11T09:38:57.258Z,1004.57
2023-04-11T09:39:57.272Z,1004.65
2023-04-11T09:40:57.246Z,1004.62
2023-04-11T09:41:57.250Z,1004.60
2023-04-11T09:42:57.229Z,1004.49
2023-04-11T09:43:57.385Z,1004.55
2023-04-11T09:44:57.194Z,1004.55
2023-04-11T09:45:57.190Z,1004.56
2023-04-11T09:46:57.380Z,1004.55
2023-04-11T09:47:57.192Z,1004.62
2023-04-11T09:48:57.188Z,1004.55
2023-04-11T09:49:57.148Z,1004.61
2023-04-11T09:50:58.890Z,1004.63
2023-04-11T09:51:57.163Z,1004.55
2023-04-11T09:52:59.208Z,1004.52
2023-04-11T09:53:57.490Z,1004.54
2023-04-11T09:54:57.080Z,1004.58
2023-04-11T09:55:57.078Z,1004.60
2023-04-11T09:56:57.091Z,1004.53
2023-04-11T09:57:57.051Z,1004.57
2023-04-11T09:58:57.391Z,1004.59
2023-04-11T09:59:57.026Z,1004.60
2023-04-11T10:00:57.027Z,1004.61
2023-04-11T10:01:57.106Z,1004.63
2023-04-11T10:02:57.293Z,1004.58
2023-04-11T10:03:57.894Z,1004.62
2023-04-11T10:04:56.979Z,1004.61
2023-04-11T10:05:56.962Z,1004.63
2023-04-11T10:06:56.975Z,1004.62
2023-04-11T10:07:56.964Z,1004.66
2023-04-11T10:08:57.242Z,1004.68
2023-04-11T10:09:56.922Z,1004.60
2023-04-11T10:10:56.910Z,1004.63
2023-04-11T10:11:56.924Z,1004.70
2023-04-11T10:12:56.907Z,1004.70
2023-04-11T10:13:57.400Z,1004.67
2023-04-11T10:14:56.866Z,1004.69
2023-04-11T10:15:56.905Z,1004.65
2023-04-11T10:16:56.869Z,1004.74
2023-04-11T10:17:56.923Z,1004.69
2023-04-11T10:18:56.815Z,1004.71
2023-04-11T10:19:57.102Z,1004.73
2023-04-11T10:20:56.796Z,1004.70
2023-04-11T10:21:56.800Z,1004.69
2023-04-11T10:22:56.792Z,1004.70
2023-04-11T10:23:56.997Z,1004.73
2023-04-11T10:24:56.748Z,1004.78
2023-04-11T10:25:56.743Z,1004.69
2023-04-11T10:26:56.734Z,1004.68
2023-04-11T10:27:56.746Z,1004.69
2023-04-11T10:28:56.704Z,1004.68
2023-04-11T10:29:56.700Z,1004.67
2023-04-11T10:30:56.688Z,1004.73
2023-04-11T10:31:56.930Z,1004.80
2023-04-11T10:32:56.757Z,1004.69
2023-04-11T10:33:56.898Z,1004.75
2023-04-11T10:34:56.641Z,1004.69
2023-04-11T10:35:56.718Z,1004.75
2023-04-11T10:36:56.618Z,1004.70
2023-04-11T10:37:56.612Z,1004.56
2023-04-11T10:38:56.634Z,1004.58
2023-04-11T10:39:56.704Z,1004.63
2023-04-11T10:40:56.574Z,1004.50
2023-04-11T10:41:56.572Z,1004.64
2023-04-11T10:42:56.553Z,1004.70
2023-04-11T10:43:56.799Z,1004.57
2023-04-11T10:44:56.531Z,1004.55
2023-04-11T10:45:56.526Z,1004.51
2023-04-11T10:46:56.606Z,1004.61
2023-04-11T10:47:56.682Z,1004.53
2023-04-11T10:48:56.488Z,1004.53
2023-04-11T10:49:56.482Z,1004.59
2023-04-11T10:50:56.463Z,1004.51
2023-04-11T10:51:56.461Z,1004.52
2023-04-11T10:52:56.468Z,1004.67
2023-04-11T10:53:56.441Z,1004.59
2023-04-11T10:54:56.448Z,1004.62
2023-04-11T10:55:56.438Z,1004.52
2023-04-11T10:56:56.398Z,1004.31
2023-04-11T10:57:56.395Z,1004.45
2023-04-11T10:58:56.388Z,1004.36
2023-04-11T10:59:56.398Z,1004.54
2023-04-11T11:00:56.426Z,1004.50
2023-04-11T11:01:56.445Z,1004.31
2023-04-11T11:02:56.441Z,1004.23
2023-04-11T11:03:56.504Z,1004.21
2023-04-11T11:04:56.366Z,1004.31
2023-04-11T11:05:56.303Z,1004.31
2023-04-11T11:06:57.433Z,1004.35
2023-04-11T11:07:56.284Z,1004.32
2023-04-11T11:08:56.324Z,1004.38
2023-04-11T11:09:56.260Z,1004.47
2023-04-11T11:10:56.817Z,1004.41
2023-04-11T11:11:56.266Z,1004.35
2023-04-11T11:12:56.247Z,1004.37
2023-04-11T11:13:56.759Z,1004.40
2023-04-11T11:14:56.196Z,1004.34
2023-04-11T11:15:56.192Z,1004.37
2023-04-11T11:16:56.220Z,1004.49
2023-04-11T11:17:56.243Z,1004.45
2023-04-11T11:18:56.173Z,1004.43
2023-04-11T11:19:56.151Z,1004.41
2023-04-11T11:20:56.137Z,1004.50
2023-04-11T11:21:56.125Z,1004.47
2023-04-11T11:22:56.136Z,1004.35
2023-04-11T11:23:56.408Z,1004.40
2023-04-11T11:24:56.089Z,1004.40
2023-04-11T11:25:56.098Z,1004.40
2023-04-11T11:26:56.075Z,1004.43
2023-04-11T11:27:56.081Z,1004.43
2023-04-11T11:28:56.561Z,1004.58
2023-04-11T11:29:56.041Z,1004.51
2023-04-11T11:30:56.031Z,1004.50
2023-04-11T11:31:56.064Z,1004.58
2023-04-11T11:32:56.078Z,1004.61
2023-04-11T11:34:04.682Z,1004.63
2023-04-11T11:34:57.056Z,1004.59
2023-04-11T11:35:55.985Z,1004.65
2023-04-11T11:36:55.986Z,1004.66
2023-04-11T11:37:55.950Z,1004.60
2023-04-11T11:38:56.057Z,1004.63
2023-04-11T11:39:55.948Z,1004.64
2023-04-11T11:40:55.925Z,1004.61
2023-04-11T11:41:55.908Z,1004.64
2023-04-11T11:42:55.899Z,1004.61
2023-04-11T11:43:56.168Z,1004.59
2023-04-11T11:44:55.892Z,1004.67
2023-04-11T11:45:55.927Z,1004.61
2023-04-11T11:46:55.852Z,1004.60
2023-04-11T11:47:55.927Z,1004.61
2023-04-11T11:48:56.237Z,1004.69
2023-04-11T11:49:55.846Z,1004.67
2023-04-11T11:50:55.807Z,1004.70
2023-04-11T11:51:55.802Z,1004.68
2023-04-11T11:52:55.784Z,1004.72
2023-04-11T11:53:55.776Z,1004.73
2023-04-11T11:54:55.790Z,1004.76
2023-04-11T11:55:55.768Z,1004.68
2023-04-11T11:56:55.745Z,1004.75
2023-04-11T11:57:55.738Z,1004.76
2023-04-11T11:58:56.105Z,1004.79
2023-04-11T11:59:55.782Z,1004.78
2023-04-11T12:00:55.720Z,1004.86
2023-04-11T12:01:55.766Z,1004.86
2023-04-11T12:02:55.969Z,1004.99
2023-04-11T12:03:56.201Z,1005.01
2023-04-11T12:04:56.239Z,1005.16